createdAt,value
2019-01-18T00:00:23.544Z,4.70
2019-01-18T00:02:52.260Z,4.70
2019-01-18T00:05:20.656Z,4.50
2019-01-18T00:07:49.042Z,4.57
2019-01-18T00:10:17.465Z,3.90
2019-01-18T00:12:45.919Z,4.37
2019-01-18T00:15:14.338Z,4.23
2019-01-18T00:17:42.755Z,4.47
2019-01-18T00:20:15.800Z,4.40
2019-01-18T00:22:44.260Z,4.30
2019-01-18T00:25:12.740Z,3.90
2019-01-18T00:27:41.172Z,3.70
2019-01-18T00:30:15.998Z,4.00
2019-01-18T00:32:44.393Z,4.33
2019-01-18T00:35:12.869Z,3.93
2019-01-18T00:37:41.256Z,3.20
2019-01-18T00:40:12.785Z,3.73
2019-01-18T00:42:41.208Z,3.60
2019-01-18T00:45:15.201Z,4.27
2019-01-18T00:47:43.589Z,3.77
2019-01-18T00:50:14.647Z,3.87
2019-01-18T00:52:43.282Z,4.03
2019-01-18T00:55:12.316Z,4.10
2019-01-18T00:57:40.709Z,4.67
2019-01-18T01:00:17.738Z,4.97
2019-01-18T01:02:46.152Z,4.83
2019-01-18T01:05:14.789Z,4.83
2019-01-18T01:07:43.209Z,4.70
2019-01-18T01:10:12.168Z,4.50
2019-01-18T01:12:40.554Z,5.27
2019-01-18T01:15:15.225Z,4.90
2019-01-18T01:17:44.062Z,5.30
2019-01-18T01:20:14.593Z,4.93
2019-01-18T01:22:43.080Z,5.07
2019-01-18T01:25:11.817Z,5.57
2019-01-18T01:27:40.690Z,5.93
2019-01-18T01:30:21.453Z,6.00
2019-01-18T01:32:50.346Z,5.30
2019-01-18T01:35:18.952Z,5.90
2019-01-18T01:37:47.344Z,6.07
2019-01-18T01:40:18.933Z,5.63
2019-01-18T01:42:47.592Z,6.07
2019-01-18T01:45:16.335Z,5.80
2019-01-18T01:47:45.771Z,6.13
2019-01-18T01:50:18.983Z,6.20
2019-01-18T01:52:47.681Z,5.47
2019-01-18T01:55:16.243Z,6.30
2019-01-18T01:57:44.811Z,5.77
2019-01-18T02:00:18.434Z,5.47
2019-01-18T02:02:46.862Z,5.83
2019-01-18T02:05:15.718Z,5.70
2019-01-18T02:07:44.276Z,6.23
2019-01-18T02:10:14.835Z,6.03
2019-01-18T02:12:43.455Z,6.27
2019-01-18T02:15:17.573Z,5.70
2019-01-18T02:17:45.981Z,5.83
2019-01-18T02:20:19.320Z,6.10
2019-01-18T02:22:48.348Z,6.23
2019-01-18T02:25:17.004Z,7.10
2019-01-18T02:27:45.843Z,6.40
2019-01-18T02:30:19.958Z,6.60
2019-01-18T02:32:48.611Z,6.80
2019-01-18T02:35:17.364Z,6.90
2019-01-18T02:37:45.766Z,7.47
2019-01-18T02:40:15.884Z,7.43
2019-01-18T02:42:44.564Z,7.47
2019-01-18T02:45:21.930Z,7.43
2019-01-18T02:47:50.434Z,7.80
2019-01-18T02:50:19.015Z,8.07
2019-01-18T02:52:47.408Z,7.70
2019-01-18T02:55:16.268Z,8.13
2019-01-18T02:57:44.735Z,9.00
2019-01-18T03:00:21.210Z,9.00
2019-01-18T03:02:50.149Z,8.97
2019-01-18T03:05:21.906Z,8.97
2019-01-18T03:07:50.478Z,9.77
2019-01-18T03:10:21.482Z,8.97
2019-01-18T03:12:49.885Z,8.57
2019-01-18T03:15:18.272Z,8.90
2019-01-18T03:17:46.721Z,9.23
2019-01-18T03:20:16.556Z,9.13
2019-01-18T03:22:44.950Z,9.73
2019-01-18T03:25:16.107Z,8.93
2019-01-18T03:27:44.541Z,9.13
2019-01-18T03:30:18.867Z,9.40
2019-01-18T03:32:45.921Z,8.93
2019-01-18T03:35:16.709Z,9.40
2019-01-18T03:37:45.104Z,9.40
2019-01-18T03:40:15.545Z,9.73
2019-01-18T03:42:44.146Z,9.80
2019-01-18T03:45:14.691Z,9.83
2019-01-18T03:47:43.087Z,9.83
2019-01-18T03:50:17.495Z,10.00
2019-01-18T03:52:46.919Z,10.63
2019-01-18T03:55:15.329Z,10.27
2019-01-18T03:57:43.721Z,10.70
2019-01-18T04:00:15.176Z,9.87
2019-01-18T04:02:43.573Z,10.03
2019-01-18T04:05:13.051Z,10.17
2019-01-18T04:07:41.650Z,10.27
2019-01-18T04:10:13.290Z,10.17
2019-01-18T04:12:41.730Z,10.03
2019-01-18T04:15:12.988Z,10.30
2019-01-18T04:17:41.387Z,10.37
2019-01-18T04:20:14.994Z,10.60
2019-01-18T04:22:43.478Z,10.60
2019-01-18T04:25:14.859Z,10.37
2019-01-18T04:27:43.313Z,11.03
2019-01-18T04:30:17.758Z,10.67
2019-01-18T04:32:46.160Z,11.73
2019-01-18T04:35:15.039Z,10.53
2019-01-18T04:37:43.441Z,11.23
2019-01-18T04:40:14.759Z,11.60
2019-01-18T04:42:43.210Z,12.33
2019-01-18T04:45:11.674Z,12.17
2019-01-18T04:47:40.314Z,12.03
2019-01-18T04:50:14.294Z,12.37
2019-01-18T04:52:42.940Z,12.50
2019-01-18T04:55:11.685Z,13.37
2019-01-18T04:57:40.125Z,13.23
2019-01-18T05:00:23.278Z,14.30
2019-01-18T05:02:51.878Z,14.13
2019-01-18T05:05:20.354Z,13.90
2019-01-18T05:07:48.769Z,13.73
2019-01-18T05:10:19.234Z,14.47
2019-01-18T05:12:47.634Z,13.93
2019-01-18T05:15:24.514Z,14.83
2019-01-18T05:17:52.918Z,13.43
2019-01-18T05:20:21.325Z,14.17
2019-01-18T05:22:49.823Z,14.67
2019-01-18T05:25:18.246Z,15.03
2019-01-18T05:27:46.646Z,15.33
2019-01-18T05:30:20.867Z,14.93
2019-01-18T05:32:49.347Z,14.60
2019-01-18T05:35:17.924Z,15.80
2019-01-18T05:37:46.362Z,15.77
2019-01-18T05:40:16.698Z,14.70
2019-01-18T05:42:45.165Z,15.77
2019-01-18T05:45:16.300Z,15.20
2019-01-18T05:47:44.707Z,15.67
2019-01-18T05:50:24.625Z,15.90
2019-01-18T05:52:53.021Z,15.17
2019-01-18T05:55:21.602Z,15.60
2019-01-18T05:57:50.101Z,16.00
2019-01-18T06:00:22.687Z,15.70
2019-01-18T06:02:51.091Z,16.20
2019-01-18T06:05:20.805Z,16.57
2019-01-18T06:07:49.307Z,16.40
2019-01-18T06:10:17.711Z,16.77
2019-01-18T06:12:46.173Z,17.37
2019-01-18T06:15:14.751Z,17.37
2019-01-18T06:17:43.314Z,17.20
2019-01-18T06:20:16.649Z,16.83
2019-01-18T06:22:45.062Z,16.90
2019-01-18T06:25:13.507Z,16.80
2019-01-18T06:27:41.924Z,17.60
2019-01-18T06:30:15.779Z,18.17
2019-01-18T06:32:44.442Z,18.80
2019-01-18T06:35:14.160Z,17.07
2019-01-18T06:37:42.725Z,17.27
2019-01-18T06:40:14.206Z,17.17
2019-01-18T06:42:42.649Z,17.00
2019-01-18T06:45:13.946Z,18.07
2019-01-18T06:47:42.342Z,17.33
2019-01-18T06:50:13.540Z,18.17
2019-01-18T06:52:41.944Z,18.33
2019-01-18T06:55:11.893Z,18.63
2019-01-18T06:57:40.745Z,18.73
2019-01-18T07:00:24.083Z,17.40
2019-01-18T07:02:52.537Z,18.27
2019-01-18T07:05:21.005Z,18.13
2019-01-18T07:07:49.482Z,19.37
2019-01-18T07:10:22.329Z,19.20
2019-01-18T07:12:50.800Z,17.93
2019-01-18T07:15:19.378Z,18.37
2019-01-18T07:17:47.879Z,19.53
2019-01-18T07:20:18.674Z,19.47
2019-01-18T07:22:47.344Z,19.17
2019-01-18T07:25:23.943Z,18.43
2019-01-18T07:27:52.349Z,19.97
2019-01-18T07:30:23.493Z,18.30
2019-01-18T07:32:52.243Z,19.50
2019-01-18T07:35:20.656Z,18.93
2019-01-18T07:37:49.293Z,19.47
2019-01-18T07:40:17.797Z,19.67
2019-01-18T07:42:46.226Z,20.03
2019-01-18T07:45:23.753Z,22.67
2019-01-18T07:47:52.239Z,20.60
2019-01-18T07:50:20.706Z,19.47
2019-01-18T07:52:49.271Z,18.47
2019-01-18T07:55:17.754Z,18.57
2019-01-18T07:57:46.266Z,18.70
2019-01-18T08:00:23.060Z,19.00
2019-01-18T08:02:51.642Z,18.70
2019-01-18T08:05:21.201Z,18.87
2019-01-18T08:07:49.602Z,17.80
2019-01-18T08:10:20.266Z,17.97
2019-01-18T08:12:48.838Z,19.97
2019-01-18T08:15:22.438Z,18.23
2019-01-18T08:17:50.909Z,18.13
2019-01-18T08:20:21.655Z,17.87
2019-01-18T08:22:50.086Z,19.20
2019-01-18T08:25:18.520Z,18.10
2019-01-18T08:27:46.911Z,18.73
2019-01-18T08:30:20.599Z,18.57
2019-01-18T08:32:49.176Z,17.73
2019-01-18T08:35:19.590Z,19.10
2019-01-18T08:37:48.082Z,19.50
2019-01-18T08:40:28.078Z,17.83
2019-01-18T08:42:56.810Z,17.70
2019-01-18T08:45:28.423Z,17.90
2019-01-18T08:47:56.900Z,18.57
2019-01-18T08:50:25.332Z,18.03
2019-01-18T08:52:53.729Z,17.27
2019-01-18T08:55:22.138Z,17.63
2019-01-18T08:57:50.575Z,18.03
2019-01-18T09:00:22.038Z,17.60
2019-01-18T09:02:50.456Z,17.80
2019-01-18T09:05:21.345Z,16.80
2019-01-18T09:07:49.746Z,16.70
2019-01-18T09:10:20.779Z,16.03
2019-01-18T09:12:49.201Z,16.30
2019-01-18T09:15:17.613Z,15.37
2019-01-18T09:17:46.309Z,15.13
2019-01-18T09:20:20.425Z,14.87
2019-01-18T09:22:48.993Z,12.80
2019-01-18T09:25:17.468Z,12.33
2019-01-18T09:27:45.842Z,11.07
2019-01-18T09:30:19.533Z,10.90
2019-01-18T09:32:48.569Z,10.73
2019-01-18T09:35:19.519Z,11.77
2019-01-18T09:37:48.894Z,12.17
2019-01-18T09:40:22.746Z,10.80
2019-01-18T09:42:51.251Z,11.47
2019-01-18T09:45:19.729Z,11.87
2019-01-18T09:47:48.202Z,11.93
2019-01-18T09:50:28.084Z,12.27
2019-01-18T09:52:56.845Z,10.83
2019-01-18T09:55:25.430Z,12.60
2019-01-18T09:57:54.926Z,12.07
2019-01-18T10:00:25.676Z,12.17
2019-01-18T10:02:55.478Z,11.93
2019-01-18T10:05:23.957Z,11.17
2019-01-18T10:07:52.423Z,11.13
2019-01-18T10:10:22.573Z,10.77
2019-01-18T10:12:51.220Z,10.50
2019-01-18T10:15:34.058Z,10.93
2019-01-18T10:18:02.457Z,10.33
2019-01-18T10:20:30.867Z,10.83
2019-01-18T10:22:59.306Z,11.17
2019-01-18T10:25:27.714Z,11.13
2019-01-18T10:27:56.118Z,12.73
2019-01-18T10:30:26.097Z,11.63
2019-01-18T10:32:54.562Z,11.30
2019-01-18T10:35:24.501Z,11.00
2019-01-18T10:37:53.114Z,10.93
2019-01-18T10:40:21.588Z,10.87
2019-01-18T10:42:50.622Z,9.67
2019-01-18T10:45:20.086Z,9.50
2019-01-18T10:47:49.722Z,8.87
2019-01-18T10:50:26.423Z,8.60
2019-01-18T10:52:54.826Z,8.27
2019-01-18T10:55:23.286Z,8.33
2019-01-18T10:57:51.795Z,9.27
2019-01-18T11:00:22.927Z,8.93
2019-01-18T11:02:52.161Z,8.40
2019-01-18T11:05:21.312Z,8.97
2019-01-18T11:07:50.130Z,7.93
2019-01-18T11:10:18.623Z,9.37
2019-01-18T11:12:47.178Z,7.93
2019-01-18T11:15:20.610Z,7.50
2019-01-18T11:17:49.010Z,8.00
2019-01-18T11:20:32.157Z,6.90
2019-01-18T11:23:00.798Z,7.37
2019-01-18T11:25:31.984Z,6.87
2019-01-18T11:28:00.213Z,7.00
2019-01-18T11:30:28.616Z,6.83
2019-01-18T11:32:57.031Z,6.50
2019-01-18T11:35:25.720Z,7.07
2019-01-18T11:37:54.189Z,6.93
2019-01-18T11:40:24.225Z,7.30
2019-01-18T11:42:52.662Z,7.50
2019-01-18T11:45:21.061Z,7.37
2019-01-18T11:47:49.799Z,6.83
2019-01-18T11:50:24.597Z,7.20
2019-01-18T11:52:53.069Z,6.60
2019-01-18T11:55:21.457Z,6.50
2019-01-18T11:57:50.032Z,6.80
2019-01-18T12:00:20.770Z,7.47
2019-01-18T12:02:49.160Z,6.20
2019-01-18T12:05:17.826Z,7.03
2019-01-18T12:07:46.465Z,7.10
2019-01-18T12:10:17.981Z,7.10
2019-01-18T12:12:46.385Z,6.90
2019-01-18T12:15:15.026Z,7.13
2019-01-18T12:17:43.454Z,6.30
2019-01-18T12:20:15.091Z,6.90
2019-01-18T12:22:43.832Z,6.60
2019-01-18T12:25:12.566Z,5.97
2019-01-18T12:27:41.142Z,5.60
2019-01-18T12:30:15.573Z,5.67
2019-01-18T12:32:44.003Z,5.43
2019-01-18T12:35:12.475Z,6.00
2019-01-18T12:37:40.861Z,6.10
2019-01-18T12:40:09.798Z,6.00
2019-01-18T12:42:38.204Z,6.47
2019-01-18T12:45:16.885Z,5.27
2019-01-18T12:47:45.285Z,5.30
2019-01-18T12:50:25.475Z,5.33
2019-01-18T12:52:53.965Z,5.50
2019-01-18T12:55:22.361Z,5.40
2019-01-18T12:57:51.755Z,4.70
2019-01-18T13:00:25.981Z,4.70
2019-01-18T13:02:54.723Z,4.27
2019-01-18T13:05:26.262Z,4.80
2019-01-18T13:07:54.778Z,4.67
2019-01-18T13:10:23.184Z,4.97
2019-01-18T13:12:51.566Z,4.43
2019-01-18T13:15:28.595Z,4.30
2019-01-18T13:17:57.022Z,5.33
2019-01-18T13:20:25.475Z,5.60
2019-01-18T13:22:54.197Z,5.70
2019-01-18T13:25:22.594Z,5.00
2019-01-18T13:27:51.007Z,4.23
2019-01-18T13:30:19.909Z,3.70
2019-01-18T13:32:48.299Z,3.90
2019-01-18T13:35:17.166Z,3.93
2019-01-18T13:37:45.672Z,4.10
2019-01-18T13:40:21.941Z,3.43
2019-01-18T13:42:50.372Z,4.20
2019-01-18T13:45:18.766Z,4.43
2019-01-18T13:47:47.356Z,3.90
2019-01-18T13:50:21.936Z,4.33
2019-01-18T13:52:50.343Z,3.63
2019-01-18T13:55:30.093Z,3.90
2019-01-18T13:57:58.487Z,3.70
2019-01-18T14:00:26.877Z,3.90
2019-01-18T14:02:55.318Z,3.30
2019-01-18T14:05:23.720Z,3.67
2019-01-18T14:07:53.491Z,3.90
2019-01-18T14:10:24.968Z,3.70
2019-01-18T14:12:53.346Z,3.60
2019-01-18T14:15:23.739Z,3.33
2019-01-18T14:17:52.518Z,3.17
2019-01-18T14:20:30.431Z,7.80
2019-01-18T14:22:58.839Z,3.57
2019-01-18T14:25:27.252Z,3.70
2019-01-18T14:27:55.685Z,3.63
2019-01-18T14:30:25.733Z,3.80
2019-01-18T14:32:55.611Z,4.13
2019-01-18T14:35:25.200Z,4.10
2019-01-18T14:37:53.779Z,3.97
2019-01-18T14:40:22.963Z,3.50
2019-01-18T14:42:55.652Z,3.77
2019-01-18T14:45:29.966Z,3.53
2019-01-18T14:47:58.366Z,3.77
2019-01-18T14:50:26.794Z,3.70
2019-01-18T14:52:55.302Z,3.87
2019-01-18T14:55:23.873Z,4.00
2019-01-18T14:57:52.471Z,3.87
2019-01-18T15:00:24.126Z,3.90
2019-01-18T15:02:52.557Z,3.83
2019-01-18T15:05:21.248Z,4.73
2019-01-18T15:07:49.638Z,4.70
2019-01-18T15:10:22.759Z,4.53
2019-01-18T15:12:53.628Z,4.77
2019-01-18T15:15:22.261Z,4.53
2019-01-18T15:17:51.154Z,4.43
2019-01-18T15:20:25.881Z,4.67
2019-01-18T15:22:54.485Z,5.37
2019-01-18T15:25:23.065Z,5.30
2019-01-18T15:27:51.890Z,5.83
2019-01-18T15:30:28.349Z,7.10
2019-01-18T15:32:56.896Z,7.13
2019-01-18T15:35:27.739Z,7.07
2019-01-18T15:37:56.642Z,6.90
2019-01-18T15:40:27.422Z,6.93
2019-01-18T15:42:57.625Z,6.97
2019-01-18T15:45:26.593Z,7.80
2019-01-18T15:47:54.987Z,8.53
2019-01-18T15:50:25.796Z,7.50
2019-01-18T15:52:54.722Z,7.53
2019-01-18T15:55:23.379Z,7.50
2019-01-18T15:57:51.964Z,8.00
2019-01-18T16:00:23.611Z,7.60
2019-01-18T16:02:52.426Z,8.10
2019-01-18T16:05:20.973Z,8.47
2019-01-18T16:07:49.406Z,8.73
2019-01-18T16:10:18.158Z,8.03
2019-01-18T16:12:46.559Z,8.23
2019-01-18T16:15:18.094Z,8.33
2019-01-18T16:17:48.161Z,8.77
2019-01-18T16:20:19.003Z,8.80
2019-01-18T16:22:48.906Z,9.03
2019-01-18T16:25:25.722Z,8.53
2019-01-18T16:27:54.310Z,11.70
2019-01-18T16:30:24.814Z,7.83
2019-01-18T16:32:55.420Z,7.90
2019-01-18T16:35:24.190Z,7.93
2019-01-18T16:37:52.928Z,7.30
2019-01-18T16:40:28.001Z,7.60
2019-01-18T16:43:02.809Z,7.33
2019-01-18T16:45:31.215Z,6.90
2019-01-18T16:47:59.910Z,7.00
2019-01-18T16:50:28.375Z,7.10
2019-01-18T16:52:56.769Z,7.20
2019-01-18T16:55:25.250Z,8.37
2019-01-18T16:57:53.731Z,6.83
2019-01-18T17:00:40.413Z,6.87
2019-01-18T17:03:09.505Z,6.40
2019-01-18T17:05:37.894Z,6.90
2019-01-18T17:08:06.773Z,6.43
2019-01-18T17:10:35.438Z,6.93
2019-01-18T17:13:04.006Z,6.80
2019-01-18T17:15:33.195Z,7.07
2019-01-18T17:18:01.801Z,6.50
2019-01-18T17:20:42.342Z,6.60
2019-01-18T17:23:10.756Z,7.40
2019-01-18T17:25:39.176Z,10.43
2019-01-18T17:28:07.641Z,8.80
2019-01-18T17:30:36.070Z,11.40
2019-01-18T17:33:04.974Z,9.17
2019-01-18T17:35:45.518Z,7.77
2019-01-18T17:38:23.210Z,6.67
2019-01-18T17:41:06.952Z,7.20
2019-01-18T17:43:58.881Z,6.90
2019-01-18T17:46:35.930Z,6.90
2019-01-18T17:49:13.503Z,7.50
2019-01-18T17:52:13.958Z,7.30
2019-01-18T17:54:48.182Z,8.73
2019-01-18T17:57:25.425Z,9.67
2019-01-18T18:00:16.453Z,9.20
2019-01-18T18:02:50.686Z,8.73
2019-01-18T18:05:42.107Z,8.30
2019-01-18T18:08:19.252Z,9.13
2019-01-18T18:11:18.023Z,9.30
2019-01-18T18:13:52.467Z,8.77
2019-01-18T18:16:36.014Z,10.33
2019-01-18T18:19:24.245Z,10.77
2019-01-18T18:21:55.729Z,11.93
2019-01-18T18:24:39.364Z,11.43
2019-01-18T18:27:19.628Z,11.90
2019-01-18T18:29:57.036Z,11.53
2019-01-18T18:32:51.287Z,11.03
2019-01-18T18:35:43.939Z,11.63
2019-01-18T18:38:24.275Z,12.57
2019-01-18T18:41:19.946Z,13.00
2019-01-18T18:44:13.941Z,12.07
2019-01-18T18:46:45.527Z,11.67
2019-01-18T18:49:22.662Z,12.13
2019-01-18T18:52:05.778Z,11.47
2019-01-18T18:54:52.429Z,11.30
2019-01-18T18:57:30.090Z,11.77
2019-01-18T19:00:13.365Z,10.83
2019-01-18T19:02:50.486Z,11.27
2019-01-18T19:05:24.647Z,12.00
2019-01-18T19:08:20.306Z,12.00
2019-01-18T19:10:57.585Z,12.50
2019-01-18T19:13:43.513Z,12.83
2019-01-18T19:16:30.101Z,13.30
2019-01-18T19:19:29.031Z,13.33
2019-01-18T19:22:09.342Z,12.07
2019-01-18T19:24:52.523Z,12.80
2019-01-18T19:27:33.014Z,12.43
2019-01-18T19:30:13.437Z,13.43
2019-01-18T19:33:00.036Z,12.90
2019-01-18T19:35:34.492Z,13.10
2019-01-18T19:38:11.982Z,14.10
2019-01-18T19:40:46.293Z,12.13
2019-01-18T19:43:29.626Z,12.13
2019-01-18T19:46:18.981Z,12.87
2019-01-18T19:49:06.992Z,10.80
2019-01-18T19:52:02.748Z,12.80
2019-01-18T19:54:46.254Z,12.70
2019-01-18T19:57:38.643Z,12.67
2019-01-18T20:00:28.735Z,13.03
2019-01-18T20:03:02.852Z,12.93
2019-01-18T20:05:49.122Z,13.13
2019-01-18T20:08:29.377Z,14.40
2019-01-18T20:11:22.432Z,15.40
2019-01-18T20:13:57.070Z,16.30
2019-01-18T20:16:49.727Z,16.60
2019-01-18T20:19:44.107Z,15.10
2019-01-18T20:22:18.689Z,15.70
2019-01-18T20:25:06.554Z,16.00
2019-01-18T20:28:04.667Z,16.27
2019-01-18T20:30:50.851Z,16.23
2019-01-18T20:33:55.833Z,15.27
2019-01-18T20:36:42.036Z,15.47
2019-01-18T20:39:28.072Z,14.73
2019-01-18T20:42:11.449Z,14.23
2019-01-18T20:45:02.241Z,13.90
2019-01-18T20:47:39.993Z,15.20
2019-01-18T20:50:26.605Z,14.23
2019-01-18T20:53:09.970Z,13.97
2019-01-18T20:55:46.938Z,13.77
2019-01-18T20:58:33.745Z,13.20
2019-01-18T21:01:22.613Z,13.07
2019-01-18T21:03:56.790Z,13.70
2019-01-18T21:06:40.330Z,14.40
2019-01-18T21:09:23.902Z,12.67
2019-01-18T21:12:01.082Z,13.27
2019-01-18T21:14:47.954Z,13.37
2019-01-18T21:17:31.389Z,14.80
2019-01-18T21:20:17.992Z,13.03
2019-01-18T21:23:10.469Z,13.83
2019-01-18T21:26:01.746Z,13.97
2019-01-18T21:28:50.898Z,13.50
2019-01-18T21:31:40.835Z,13.37
2019-01-18T21:34:21.562Z,14.13
2019-01-18T21:37:09.742Z,17.10
2019-01-18T21:39:50.160Z,15.03
2019-01-18T21:42:33.816Z,13.77
2019-01-18T21:45:20.228Z,14.60
2019-01-18T21:48:03.558Z,15.23
2019-01-18T21:50:37.707Z,14.27
2019-01-18T21:53:12.291Z,14.73
2019-01-18T21:55:49.369Z,14.80
2019-01-18T21:58:26.763Z,14.03
2019-01-18T22:01:27.154Z,13.57
2019-01-18T22:04:25.907Z,15.20
2019-01-18T22:07:03.246Z,15.67
2019-01-18T22:09:35.087Z,16.63
2019-01-18T22:12:15.626Z,17.80
2019-01-18T22:14:47.158Z,15.23
2019-01-18T22:17:30.069Z,15.33
2019-01-18T22:20:13.687Z,15.20
2019-01-18T22:23:03.346Z,15.10
2019-01-18T22:25:55.421Z,15.50
2019-01-18T22:28:29.836Z,15.60
2019-01-18T22:31:04.086Z,15.03
2019-01-18T22:33:38.413Z,16.23
2019-01-18T22:36:25.098Z,15.37
2019-01-18T22:38:59.500Z,15.57
2019-01-18T22:41:33.936Z,15.73
2019-01-18T22:44:29.321Z,15.87
2019-01-18T22:47:23.589Z,15.57
2019-01-18T22:49:57.910Z,15.00
2019-01-18T22:52:47.491Z,15.03
2019-01-18T22:55:24.483Z,14.77
2019-01-18T22:58:19.774Z,14.93
2019-01-18T23:00:58.878Z,14.83
2019-01-18T23:03:53.466Z,15.30
2019-01-18T23:06:27.735Z,14.80
2019-01-18T23:09:16.138Z,14.83
2019-01-18T23:12:04.060Z,15.00
2019-01-18T23:14:41.477Z,15.17
2019-01-18T23:17:31.070Z,14.90
2019-01-18T23:20:29.550Z,15.00
2019-01-18T23:23:19.015Z,15.17
2019-01-18T23:25:53.338Z,14.23
2019-01-18T23:28:33.591Z,14.53
2019-01-18T23:31:20.608Z,14.73
2019-01-18T23:33:52.088Z,15.60
2019-01-18T23:36:26.421Z,14.77
2019-01-18T23:39:06.752Z,13.87
2019-01-18T23:41:38.259Z,13.53
2019-01-18T23:44:29.553Z,13.77
2019-01-18T23:47:27.185Z,14.77
2019-01-18T23:50:04.493Z,14.27
2019-01-18T23:52:50.944Z,16.53
2019-01-18T23:55:37.938Z,13.80
2019-01-18T23:58:27.359Z,14.10
